Antonito, Colorado
Current Conditions -  °F | °C
As of 7:52 AM on Thursday 18 Dec 2014 (Local Time) from KALS Reporting Station
Overcast Overcast  
Wind Chill: 25°   Ceiling: 1800
Heat Index: 25°   Visibility: 10mi
Dew Point: 22°   Wind: 0mph
Humidity: 88%   Direction: NA
Pressure: 30.09"   Gusts: NA
Location:  37.08°N, 106.01°W
Report Text: KALS 181452Z AUTO 00000KT 10SM OVC018 M04/M06 A3009 RMK AO2 SLP216 T10391056 53009
Loading
Personal Weather Stations






























Interactive Weather Map New forecast layout! Learn more

10-Day Weather Forecast

Advertisements
Track Severe Weather on mobile